Terminal Aerodrome Forecast
Issued by NWS Melbourne, FL

Home | Current Version | Previous Version | Text Only | Print | Product List | Glossary On
Versions: 1 2 3 4 5 6 7 8 9 10 11 12 13 14 15 16 17 18 19 20
000
FTUS42 KMLB 080019 RRA
TAFMLB
TAF
KMLB 080019Z 0800/0824 18003KT P6SM FEW030 BKN080 BKN250
     FM080200 15003KT P6SM FEW120 BKN250
     FM081400 14007KT P6SM SCT030 SCT250
     FM081800 12010KT P6SM SCT040=

USA.gov is the U.S. government's official web portal to all federal, state and local government web resources and services.